Atlanta, GA

4:22 AM EST on December 05, 2016 (GMT -0500)
Bobby Dodd Stadium WeatherSTEM | | Change Station

Elev 938 ft 33.77 °N, 84.39 °W | Updated 4 minutes ago

Overcast
Overcast
43.7 °F
Feels Like 44 °F
N
1.0
Wind Variable Wind from NE

Today
High -- | Low -- °F
--% Chance of Precip.
Yesterday
High -- | Low -- °F
Precip. -- in
Pressure 30.00 in
Visibility 10.0 miles
Clouds Overcast 400 ft
Windchill 44 °F
Dew Point 42 °F
Humidity 93%
Rainfall 0.01 in
Snow Depth Not available.
7:27 AM 5:28 PM
Waxing Crescent, 30% visible
METAR KFTY 050853Z 06005KT 10SM OVC004 11/05 A3000 RMK AO2 SLP159 60000 T01110050 58003
Pressure 30.00 in
Visibility 10.0 miles
Clouds Overcast 400 ft
Windchill 44 °F
Dew Point 42 °F
Humidity 93%
Rainfall 0.01 in
Snow Depth Not available.
7:27 AM 5:28 PM
Waxing Crescent, 30% visible
METAR KFTY 050853Z 06005KT 10SM OVC004 11/05 A3000 RMK AO2 SLP159 60000 T01110050 58003

10-Day Weather Forecast

Almanac

Astronomy

Dec. 05, 2016 Rise Set
Actual Time
Civil Twilight
Nautical Twilight
Astronomical Twilight
Moon
Length of Visible Light
Length of Day
Tomorrow will be .
, % of the Moon is Illuminated

Today's Extremes

State Highs State Lows

Community

WunderPhotos

Upload Photos

1,955,775 photos uploaded!

WunderBlog® & News

Nearby

Air Quality

  Air Quality AQ Index Pollutant
Not available.

Snow Depth

Station Depth Elevation

Earthquake Activity

City Distance Mag. Time & Date
Minimum magnitude displayed is 2.5.

Coastal Water Temperatures

Place Temperature

Stations

Nearby Weather Stations

Station Location Temp. Windchill Dew Point Humidity Wind Precip. Elev Updated Type
                   

Watches & Warnings

There are currently no watches in effect.